Time;durP1;ratioP1;P1;durP2;ratioP2;P2;SDS_P1;SDS_P2;PMS_P1;PMS_P2;Temp;Humidity;BMP_temperature;BMP_pressure;BME280_temperature;BME280_humidity;BME280_pressure;Samples;Min_cycle;Max_cycle;Signal;HPM_P1;HPM_P2
2024/02/12 00:01:45;;;;;;;0.30;0.30;;;;;;;;;;5045316;28;20259;-78
2024/02/12 00:04:12;;;;;;;0.30;0.30;;;;;;;;;;5046216;28;20260;-77
2024/02/12 00:06:40;;;;;;;0.20;0.20;;;;;;;;;;5046285;28;20736;-78
2024/02/12 00:09:06;;;;;;;0.20;0.20;;;;;;;;;;5046926;28;20247;-78
2024/02/12 00:11:33;;;;;;;0.30;0.30;;;;;;;;;;5047017;28;20227;-78
2024/02/12 00:14:04;;;;;;;0.20;0.20;;;;;;;;;;5045017;28;20312;-78
2024/02/12 00:16:30;;;;;;;0.30;0.30;;;;;;;;;;5044968;28;20290;-77
2024/02/12 00:18:57;;;;;;;0.30;0.30;;;;;;;;;;5049723;28;20339;-78
2024/02/12 00:21:24;;;;;;;0.30;0.30;;;;;;;;;;5050892;28;20314;-77
2024/02/12 00:23:50;;;;;;;0.30;0.30;;;;;;;;;;5049944;28;20227;-77
2024/02/12 00:26:17;;;;;;;0.30;0.30;;;;;;;;;;5045869;28;20783;-78
2024/02/12 00:28:48;;;;;;;0.30;0.30;;;;;;;;;;5044129;28;20227;-78
2024/02/12 00:31:14;;;;;;;0.30;0.30;;;;;;;;;;5045257;28;20227;-78
2024/02/12 00:33:41;;;;;;;0.30;0.30;;;;;;;;;;5043011;28;20270;-78
2024/02/12 00:36:11;;;;;;;0.30;0.30;;;;;;;;;;5049580;28;20234;-78
2024/02/12 00:38:39;;;;;;;0.30;0.30;;;;;;;;;;5045932;28;20222;-78
2024/02/12 00:41:11;;;;;;;0.30;0.30;;;;;;;;;;5045093;28;20305;-78
2024/02/12 00:43:43;;;;;;;0.30;0.30;;;;;;;;;;5047630;28;20228;-77
2024/02/12 00:46:11;;;;;;;0.30;0.30;;;;;;;;;;5066242;28;20219;-78
2024/02/12 00:48:38;;;;;;;0.30;0.30;;;;;;;;;;5045027;28;20779;-78
2024/02/12 00:51:06;;;;;;;0.30;0.30;;;;;;;;;;5043772;28;20234;-77
2024/02/12 00:53:33;;;;;;;0.30;0.30;;;;;;;;;;5047237;28;20646;-79
2024/02/12 00:56:00;;;;;;;1.20;1.20;;;;;;;;;;5050228;28;20233;-78
2024/02/12 00:58:27;;;;;;;1.90;1.80;;;;;;;;;;5048390;28;20247;-77
2024/02/12 01:00:56;;;;;;;0.30;0.30;;;;;;;;;;5047081;28;20314;-77
2024/02/12 01:03:23;;;;;;;0.30;0.30;;;;;;;;;;5044819;28;20709;-77
2024/02/12 01:05:50;;;;;;;0.20;0.20;;;;;;;;;;5045806;28;20241;-78
2024/02/12 01:08:17;;;;;;;0.30;0.30;;;;;;;;;;5043038;28;20216;-77
2024/02/12 01:10:43;;;;;;;0.20;0.20;;;;;;;;;;5045577;28;20274;-77
2024/02/12 01:13:10;;;;;;;0.30;0.30;;;;;;;;;;5050411;28;20231;-77
2024/02/12 01:15:37;;;;;;;0.20;0.20;;;;;;;;;;5045280;28;20653;-77
2024/02/12 01:18:06;;;;;;;0.30;0.30;;;;;;;;;;5049977;28;20229;-77
2024/02/12 01:20:37;;;;;;;0.30;0.30;;;;;;;;;;5049290;28;20231;-77
2024/02/12 01:23:06;;;;;;;0.30;0.30;;;;;;;;;;5044138;28;20720;-78
2024/02/12 01:25:33;;;;;;;0.30;0.30;;;;;;;;;;5043873;28;20230;-77
2024/02/12 01:28:00;;;;;;;0.20;0.20;;;;;;;;;;5046311;28;20224;-78
2024/02/12 01:30:28;;;;;;;0.30;0.30;;;;;;;;;;5045614;28;20314;-77
2024/02/12 01:32:55;;;;;;;0.30;0.30;;;;;;;;;;5047498;28;20216;-77
2024/02/12 01:35:22;;;;;;;0.20;0.20;;;;;;;;;;5043565;28;20478;-78
2024/02/12 01:37:51;;;;;;;0.30;0.30;;;;;;;;;;5048830;28;20232;-77
2024/02/12 01:40:18;;;;;;;0.30;0.30;;;;;;;;;;5048333;28;20358;-77
2024/02/12 01:42:45;;;;;;;0.20;0.20;;;;;;;;;;5045012;28;20232;-80
2024/02/12 01:45:12;;;;;;;0.30;0.30;;;;;;;;;;5042747;28;20307;-77
2024/02/12 01:47:42;;;;;;;0.30;0.30;;;;;;;;;;5045223;28;20222;-77
2024/02/12 01:50:15;;;;;;;0.30;0.30;;;;;;;;;;5048514;28;20259;-77
2024/02/12 01:52:48;;;;;;;0.20;0.20;;;;;;;;;;5043690;28;20731;-77
2024/02/12 01:55:18;;;;;;;0.30;0.30;;;;;;;;;;5043797;28;20284;-76
2024/02/12 01:57:46;;;;;;;0.30;0.30;;;;;;;;;;5044590;28;20766;-77
2024/02/12 02:00:17;;;;;;;0.30;0.30;;;;;;;;;;5046794;28;20253;-77
2024/02/12 02:02:44;;;;;;;0.40;0.40;;;;;;;;;;5044140;28;20234;-77
2024/02/12 02:05:13;;;;;;;0.20;0.20;;;;;;;;;;5045609;28;20230;-77
2024/02/12 02:07:40;;;;;;;0.20;0.20;;;;;;;;;;5041760;28;20282;-77
2024/02/12 02:10:09;;;;;;;0.30;0.30;;;;;;;;;;5043960;28;20224;-77
2024/02/12 02:12:37;;;;;;;0.30;0.30;;;;;;;;;;5043619;28;20231;-77
2024/02/12 02:15:05;;;;;;;0.30;0.30;;;;;;;;;;5063825;28;20215;-77
2024/02/12 02:17:33;;;;;;;0.30;0.30;;;;;;;;;;5046895;28;20223;-77
2024/02/12 02:20:00;;;;;;;0.30;0.30;;;;;;;;;;5047175;28;20223;-77
2024/02/12 02:22:28;;;;;;;0.20;0.20;;;;;;;;;;5059088;28;20231;-77
2024/02/12 02:24:57;;;;;;;0.30;0.30;;;;;;;;;;5043002;28;20230;-82
2024/02/12 02:27:25;;;;;;;0.30;0.30;;;;;;;;;;5045732;28;20254;-77
2024/02/12 02:29:51;;;;;;;0.30;0.30;;;;;;;;;;5042457;28;20724;-77
2024/02/12 02:32:18;;;;;;;0.30;0.30;;;;;;;;;;5044099;28;20219;-77
2024/02/12 02:34:46;;;;;;;0.20;0.20;;;;;;;;;;5045854;28;20223;-77
2024/02/12 02:37:13;;;;;;;0.30;0.30;;;;;;;;;;5048526;28;20241;-77
2024/02/12 02:39:39;;;;;;;0.53;0.53;;;;;;;;;;5042830;28;20216;-77
2024/02/12 02:42:06;;;;;;;0.30;0.30;;;;;;;;;;5042229;28;20716;-77
2024/02/12 02:44:35;;;;;;;0.30;0.30;;;;;;;;;;5043034;28;20225;-77
2024/02/12 02:47:04;;;;;;;0.30;0.30;;;;;;;;;;5058531;28;20321;-77
2024/02/12 02:49:31;;;;;;;0.20;0.20;;;;;;;;;;5042475;28;20223;-77
2024/02/12 02:51:57;;;;;;;0.30;0.30;;;;;;;;;;5044163;28;20223;-77
2024/02/12 02:54:24;;;;;;;0.20;0.20;;;;;;;;;;5040693;28;20223;-77
2024/02/12 02:56:51;;;;;;;0.30;0.30;;;;;;;;;;5047817;28;20236;-76
2024/02/12 02:59:18;;;;;;;0.20;0.20;;;;;;;;;;5049389;28;20266;-77
2024/02/12 03:01:45;;;;;;;0.30;0.30;;;;;;;;;;5049193;28;20266;-76
2024/02/12 03:04:13;;;;;;;0.30;0.30;;;;;;;;;;5046477;28;20234;-77
2024/02/12 03:06:41;;;;;;;0.30;0.30;;;;;;;;;;5050117;28;20230;-77
2024/02/12 03:09:09;;;;;;;0.20;0.20;;;;;;;;;;5047535;28;20302;-78
2024/02/12 03:11:37;;;;;;;0.30;0.30;;;;;;;;;;5045702;28;20305;-77
2024/02/12 03:14:05;;;;;;;0.30;0.30;;;;;;;;;;5049054;28;20597;-77
2024/02/12 03:16:32;;;;;;;0.30;0.30;;;;;;;;;;5047239;28;20241;-77
2024/02/12 03:19:00;;;;;;;0.30;0.30;;;;;;;;;;5047306;28;20231;-77
2024/02/12 03:21:27;;;;;;;0.30;0.30;;;;;;;;;;5047824;28;20306;-78
2024/02/12 03:23:54;;;;;;;0.30;0.30;;;;;;;;;;5045781;28;20720;-78
2024/02/12 03:26:20;;;;;;;0.30;0.30;;;;;;;;;;5052295;28;20231;-77
2024/02/12 03:28:49;;;;;;;0.27;0.27;;;;;;;;;;5047066;28;20228;-77
2024/02/12 03:31:15;;;;;;;0.30;0.30;;;;;;;;;;5052631;28;20263;-77
2024/02/12 03:33:43;;;;;;;0.30;0.30;;;;;;;;;;5046192;28;20748;-77
2024/02/12 03:36:09;;;;;;;0.27;0.27;;;;;;;;;;5051068;28;20685;-77
2024/02/12 03:38:39;;;;;;;0.30;0.30;;;;;;;;;;5054373;28;20607;-77
2024/02/12 03:41:07;;;;;;;0.30;0.30;;;;;;;;;;5052887;28;20226;-78
2024/02/12 03:43:37;;;;;;;0.20;0.20;;;;;;;;;;5051030;28;20300;-77
2024/02/12 03:46:04;;;;;;;0.30;0.30;;;;;;;;;;5051403;28;20891;-77
2024/02/12 04:02:17;;;;;;;0.60;0.60;;;;;;;;;;5048559;28;20234;-77
2024/02/12 04:04:44;;;;;;;0.20;0.20;;;;;;;;;;5053437;28;20224;-77
2024/02/12 04:07:13;;;;;;;2.73;2.10;;;;;;;;;;5052988;28;20834;-77
2024/02/12 04:09:41;;;;;;;0.27;0.27;;;;;;;;;;5050431;28;20234;-77
2024/02/12 04:12:11;;;;;;;0.60;0.60;;;;;;;;;;5046489;28;20219;-77
2024/02/12 04:14:42;;;;;;;0.30;0.30;;;;;;;;;;5046440;28;20589;-76
2024/02/12 04:17:10;;;;;;;0.30;0.30;;;;;;;;;;5045684;28;20251;-77
2024/02/12 04:19:37;;;;;;;0.30;0.30;;;;;;;;;;5046950;28;20756;-77
2024/02/12 04:22:09;;;;;;;0.30;0.30;;;;;;;;;;5049473;28;20701;-77
2024/02/12 04:24:40;;;;;;;0.30;0.30;;;;;;;;;;5045687;28;20306;-78
2024/02/12 04:27:08;;;;;;;0.30;0.30;;;;;;;;;;5066151;28;20231;-78
2024/02/12 04:29:38;;;;;;;0.30;0.30;;;;;;;;;;5044734;28;20235;-78
2024/02/12 04:32:14;;;;;;;0.30;0.30;;;;;;;;;;5045398;28;20227;-78
2024/02/12 04:34:41;;;;;;;0.30;0.30;;;;;;;;;;5043750;28;20230;-78
2024/02/12 04:37:10;;;;;;;0.30;0.30;;;;;;;;;;5047904;28;20606;-77
2024/02/12 04:39:36;;;;;;;0.30;0.30;;;;;;;;;;5045328;28;20307;-77
2024/02/12 04:42:04;;;;;;;0.30;0.30;;;;;;;;;;5048441;28;20223;-77
2024/02/12 04:44:31;;;;;;;0.20;0.20;;;;;;;;;;5049218;28;20224;-77
2024/02/12 04:47:00;;;;;;;0.23;0.23;;;;;;;;;;5048676;28;20323;-78
2024/02/12 04:49:31;;;;;;;0.30;0.30;;;;;;;;;;5058781;28;20250;-77
2024/02/12 04:51:58;;;;;;;0.20;0.20;;;;;;;;;;5063746;28;20278;-77
2024/02/12 04:54:25;;;;;;;0.20;0.20;;;;;;;;;;5059664;28;20224;-77
2024/02/12 04:56:53;;;;;;;0.20;0.20;;;;;;;;;;5052488;28;20237;-77
2024/02/12 04:59:20;;;;;;;0.30;0.30;;;;;;;;;;5049056;28;20316;-77
2024/02/12 05:01:47;;;;;;;0.30;0.30;;;;;;;;;;5046548;28;20668;-77
2024/02/12 05:04:17;;;;;;;0.30;0.30;;;;;;;;;;5045748;28;20251;-77
2024/02/12 05:06:45;;;;;;;0.30;0.30;;;;;;;;;;5047180;28;20231;-77
2024/02/12 05:09:12;;;;;;;0.30;0.30;;;;;;;;;;5043392;28;20216;-77
2024/02/12 05:11:40;;;;;;;0.30;0.30;;;;;;;;;;5046946;28;20235;-77
2024/02/12 05:14:07;;;;;;;0.27;0.27;;;;;;;;;;5049073;28;20271;-77
2024/02/12 05:16:34;;;;;;;0.30;0.30;;;;;;;;;;5048448;28;20249;-78
2024/02/12 05:24:34;;;;;;;0.30;0.30;;;;;;;;;;5045789;28;20234;-78
2024/02/12 05:27:01;;;;;;;0.30;0.30;;;;;;;;;;5049889;28;20234;-78
2024/02/12 05:29:27;;;;;;;0.30;0.30;;;;;;;;;;5042960;28;20219;-77
2024/02/12 05:31:54;;;;;;;0.30;0.30;;;;;;;;;;5044348;28;20230;-78
2024/02/12 05:34:23;;;;;;;0.30;0.30;;;;;;;;;;5045807;28;20266;-78
2024/02/12 05:36:56;;;;;;;0.30;0.30;;;;;;;;;;5048310;28;20228;-78
2024/02/12 05:39:23;;;;;;;0.30;0.30;;;;;;;;;;5047490;28;20296;-77
2024/02/12 05:41:51;;;;;;;0.30;0.30;;;;;;;;;;5046610;28;20231;-77
2024/02/12 05:44:17;;;;;;;0.30;0.30;;;;;;;;;;5045469;28;20243;-77
2024/02/12 05:46:44;;;;;;;0.30;0.30;;;;;;;;;;5043756;28;20227;-77
2024/02/12 05:49:13;;;;;;;0.30;0.30;;;;;;;;;;5044026;28;20230;-77
2024/02/12 05:51:43;;;;;;;0.30;0.30;;;;;;;;;;5047533;28;20230;-77
2024/02/12 05:54:09;;;;;;;0.30;0.30;;;;;;;;;;5044362;28;20242;-77
2024/02/12 05:56:39;;;;;;;0.20;0.20;;;;;;;;;;5044951;28;20235;-78
2024/02/12 05:59:08;;;;;;;0.20;0.20;;;;;;;;;;5066689;28;20219;-77
2024/02/12 06:01:35;;;;;;;0.20;0.20;;;;;;;;;;5048374;28;20264;-77
2024/02/12 06:04:02;;;;;;;0.30;0.30;;;;;;;;;;5047714;28;20227;-77
2024/02/12 06:06:29;;;;;;;0.30;0.30;;;;;;;;;;5042454;28;20243;-77
2024/02/12 06:08:55;;;;;;;0.30;0.30;;;;;;;;;;5046032;28;20314;-77
2024/02/12 06:11:22;;;;;;;0.30;0.30;;;;;;;;;;5047779;28;20685;-77
2024/02/12 06:13:49;;;;;;;0.30;0.30;;;;;;;;;;5043095;28;20231;-77
2024/02/12 06:16:16;;;;;;;0.43;0.43;;;;;;;;;;5046178;28;20223;-77
2024/02/12 06:18:43;;;;;;;0.30;0.30;;;;;;;;;;5047913;28;20223;-77
2024/02/12 06:21:11;;;;;;;0.30;0.30;;;;;;;;;;5052967;28;20309;-77
2024/02/12 06:23:38;;;;;;;0.30;0.30;;;;;;;;;;5053648;28;20219;-77
2024/02/12 06:26:05;;;;;;;0.30;0.30;;;;;;;;;;5064696;28;20229;-76
2024/02/12 06:28:32;;;;;;;0.30;0.30;;;;;;;;;;5049860;28;20219;-77
2024/02/12 06:30:59;;;;;;;0.20;0.20;;;;;;;;;;5047915;28;20226;-77
2024/02/12 06:33:25;;;;;;;0.30;0.30;;;;;;;;;;5048511;28;20721;-77
2024/02/12 06:35:53;;;;;;;0.30;0.30;;;;;;;;;;5047873;28;20324;-77
2024/02/12 06:38:20;;;;;;;0.30;0.30;;;;;;;;;;5048460;28;20222;-77
2024/02/12 06:40:48;;;;;;;0.20;0.20;;;;;;;;;;5048001;28;20238;-77
2024/02/12 06:43:15;;;;;;;0.30;0.30;;;;;;;;;;5049641;28;20747;-77
2024/02/12 06:45:42;;;;;;;0.30;0.30;;;;;;;;;;5047988;28;20232;-77
2024/02/12 06:48:09;;;;;;;0.30;0.30;;;;;;;;;;5050020;28;20238;-77
2024/02/12 06:50:36;;;;;;;0.30;0.30;;;;;;;;;;5048368;28;20235;-77
2024/02/12 06:53:03;;;;;;;0.30;0.30;;;;;;;;;;5047680;28;20223;-78
2024/02/12 06:55:31;;;;;;;0.20;0.20;;;;;;;;;;5046140;28;20701;-77
2024/02/12 06:57:58;;;;;;;0.30;0.30;;;;;;;;;;5045550;28;20235;-77
2024/02/12 07:00:25;;;;;;;0.20;0.20;;;;;;;;;;5048347;28;20215;-77
2024/02/12 07:02:51;;;;;;;0.27;0.27;;;;;;;;;;5047833;28;20223;-77
2024/02/12 07:05:18;;;;;;;0.30;0.30;;;;;;;;;;5049813;28;20808;-77
2024/02/12 07:07:48;;;;;;;0.30;0.30;;;;;;;;;;5044065;28;20290;-77
2024/02/12 07:10:14;;;;;;;0.30;0.30;;;;;;;;;;5047123;28;20222;-77
2024/02/12 07:12:41;;;;;;;0.30;0.30;;;;;;;;;;5046660;28;20239;-77
2024/02/12 07:15:09;;;;;;;0.30;0.30;;;;;;;;;;5060895;28;20226;-77
2024/02/12 07:17:36;;;;;;;0.30;0.30;;;;;;;;;;5042710;28;20228;-77
2024/02/12 07:20:04;;;;;;;0.30;0.30;;;;;;;;;;5047823;28;20242;-76
2024/02/12 07:22:31;;;;;;;0.20;0.20;;;;;;;;;;5049042;28;20218;-77
2024/02/12 07:24:59;;;;;;;0.30;0.30;;;;;;;;;;5045317;28;20219;-79
2024/02/12 07:27:26;;;;;;;0.30;0.30;;;;;;;;;;5046637;28;20239;-78
2024/02/12 07:29:53;;;;;;;0.20;0.20;;;;;;;;;;5045513;28;20297;-77
2024/02/12 07:32:19;;;;;;;0.30;0.30;;;;;;;;;;5044447;28;20688;-77
2024/02/12 07:34:47;;;;;;;0.30;0.30;;;;;;;;;;5043931;28;20223;-76
2024/02/12 07:37:14;;;;;;;0.20;0.20;;;;;;;;;;5045580;28;20235;-76
2024/02/12 07:39:41;;;;;;;0.30;0.30;;;;;;;;;;5044455;28;20224;-77
2024/02/12 07:42:08;;;;;;;0.30;0.30;;;;;;;;;;5045339;28;20307;-77
2024/02/12 07:44:36;;;;;;;0.30;0.30;;;;;;;;;;5045966;28;20597;-77
2024/02/12 07:47:05;;;;;;;0.30;0.30;;;;;;;;;;5045306;28;20231;-78
2024/02/12 07:49:45;;;;;;;0.20;0.20;;;;;;;;;;5049323;28;20953;-78
2024/02/12 07:52:14;;;;;;;0.30;0.30;;;;;;;;;;5060840;28;20226;-77
2024/02/12 07:54:44;;;;;;;0.20;0.20;;;;;;;;;;5060385;28;20610;-78
2024/02/12 07:57:12;;;;;;;0.30;0.30;;;;;;;;;;5080275;28;20904;-78
2024/02/12 07:59:40;;;;;;;0.30;0.30;;;;;;;;;;5077022;28;20658;-77
2024/02/12 08:02:07;;;;;;;0.30;0.30;;;;;;;;;;5078513;28;20232;-78
2024/02/12 08:04:34;;;;;;;0.20;0.20;;;;;;;;;;5077011;28;20222;-78
2024/02/12 08:07:04;;;;;;;0.30;0.30;;;;;;;;;;5077880;28;20221;-77
2024/02/12 08:09:33;;;;;;;0.30;0.30;;;;;;;;;;5061026;28;20309;-78
2024/02/12 08:12:05;;;;;;;0.30;0.30;;;;;;;;;;5078625;28;20735;-80
2024/02/12 08:14:33;;;;;;;0.30;0.30;;;;;;;;;;5077748;28;20222;-78
2024/02/12 08:16:59;;;;;;;0.30;0.30;;;;;;;;;;5077849;28;20237;-78
2024/02/12 08:19:26;;;;;;;0.30;0.30;;;;;;;;;;5077558;28;20230;-77
2024/02/12 08:21:52;;;;;;;0.30;0.30;;;;;;;;;;5037457;28;20267;-78
2024/02/12 08:24:19;;;;;;;0.30;0.30;;;;;;;;;;5076955;28;20222;-80
2024/02/12 08:26:45;;;;;;;0.30;0.30;;;;;;;;;;5066599;28;20234;-78
2024/02/12 08:29:12;;;;;;;0.20;0.20;;;;;;;;;;5077266;28;20559;-78
2024/02/12 08:31:40;;;;;;;0.30;0.30;;;;;;;;;;5076811;28;20299;-78
2024/02/12 08:34:08;;;;;;;0.30;0.30;;;;;;;;;;5077118;28;20218;-78
2024/02/12 08:36:35;;;;;;;0.30;0.30;;;;;;;;;;5077862;28;20233;-78
2024/02/12 08:39:01;;;;;;;1.43;0.90;;;;;;;;;;5079835;28;20214;-80
2024/02/12 08:41:28;;;;;;;0.30;0.30;;;;;;;;;;5063573;28;20581;-77
2024/02/12 08:43:56;;;;;;;0.23;0.23;;;;;;;;;;5067967;28;20276;-78
2024/02/12 08:46:23;;;;;;;0.30;0.30;;;;;;;;;;5071930;28;20218;-77
2024/02/12 08:48:49;;;;;;;0.30;0.30;;;;;;;;;;5062281;28;20288;-78
2024/02/12 08:51:16;;;;;;;0.30;0.30;;;;;;;;;;5081336;28;20683;-78
2024/02/12 08:53:45;;;;;;;0.30;0.30;;;;;;;;;;5071298;28;20223;-78
2024/02/12 08:56:16;;;;;;;0.30;0.30;;;;;;;;;;5066016;28;20226;-78
2024/02/12 08:58:45;;;;;;;0.30;0.30;;;;;;;;;;5076540;28;20222;-78
2024/02/12 09:01:13;;;;;;;0.30;0.30;;;;;;;;;;5050167;28;20219;-78
2024/02/12 09:03:42;;;;;;;0.20;0.20;;;;;;;;;;5063148;28;20227;-77
2024/02/12 09:06:12;;;;;;;0.30;0.30;;;;;;;;;;5063305;28;20230;-78
2024/02/12 09:08:44;;;;;;;0.30;0.30;;;;;;;;;;5062902;28;20740;-78
2024/02/12 09:11:12;;;;;;;0.30;0.30;;;;;;;;;;5063164;28;20227;-78
2024/02/12 09:13:40;;;;;;;0.30;0.30;;;;;;;;;;5062696;28;20224;-78
2024/02/12 09:16:10;;;;;;;0.20;0.20;;;;;;;;;;5062589;28;20226;-78
2024/02/12 09:18:37;;;;;;;0.20;0.20;;;;;;;;;;5063756;28;20310;-78
2024/02/12 09:21:05;;;;;;;0.30;0.30;;;;;;;;;;5053250;28;20317;-79
2024/02/12 09:23:32;;;;;;;0.30;0.30;;;;;;;;;;5063091;28;20274;-78
2024/02/12 09:25:58;;;;;;;0.30;0.30;;;;;;;;;;5064741;28;20227;-77
2024/02/12 09:28:26;;;;;;;0.30;0.30;;;;;;;;;;5047663;28;20659;-77
2024/02/12 09:30:57;;;;;;;0.30;0.30;;;;;;;;;;5062890;28;20587;-78
2024/02/12 09:33:24;;;;;;;0.30;0.30;;;;;;;;;;5063270;28;20273;-78
2024/02/12 09:35:51;;;;;;;0.30;0.30;;;;;;;;;;5046688;28;20241;-78
2024/02/12 09:38:18;;;;;;;0.30;0.30;;;;;;;;;;5054382;28;20223;-78
2024/02/12 09:40:46;;;;;;;0.30;0.30;;;;;;;;;;5052993;28;20227;-78
2024/02/12 09:43:13;;;;;;;0.30;0.30;;;;;;;;;;5045735;28;20587;-78
2024/02/12 09:45:44;;;;;;;0.20;0.20;;;;;;;;;;5046032;28;20238;-78
2024/02/12 09:48:12;;;;;;;0.30;0.30;;;;;;;;;;5068096;28;20238;-78
2024/02/12 09:50:59;;;;;;;0.30;0.30;;;;;;;;;;5062754;28;20600;-78
2024/02/12 09:53:27;;;;;;;0.30;0.30;;;;;;;;;;5062568;28;20223;-78
2024/02/12 09:55:56;;;;;;;0.30;0.30;;;;;;;;;;5062158;28;20277;-77
2024/02/12 09:58:23;;;;;;;0.30;0.30;;;;;;;;;;5064047;28;20631;-78
2024/02/12 10:00:50;;;;;;;0.30;0.30;;;;;;;;;;5036262;28;20231;-79
2024/02/12 10:03:16;;;;;;;0.23;0.23;;;;;;;;;;5043684;28;20215;-78
2024/02/12 10:05:44;;;;;;;0.30;0.30;;;;;;;;;;5026404;28;20241;-78
2024/02/12 10:08:22;;;;;;;0.30;0.30;;;;;;;;;;5027299;28;20263;-78
2024/02/12 10:10:49;;;;;;;0.30;0.30;;;;;;;;;;5026798;28;20265;-78
2024/02/12 10:13:16;;;;;;;0.30;0.30;;;;;;;;;;5044426;28;20224;-79
2024/02/12 10:15:43;;;;;;;0.30;0.30;;;;;;;;;;5042571;28;20231;-78
2024/02/12 10:18:12;;;;;;;0.30;0.30;;;;;;;;;;5024908;28;20306;-78
2024/02/12 10:20:39;;;;;;;0.80;0.80;;;;;;;;;;5041031;28;20224;-78
2024/02/12 10:23:09;;;;;;;0.33;0.33;;;;;;;;;;5025146;28;20249;-78
2024/02/12 10:25:41;;;;;;;0.30;0.30;;;;;;;;;;5040576;28;20231;-78
2024/02/12 10:28:07;;;;;;;0.63;0.50;;;;;;;;;;5029095;28;20223;-78
2024/02/12 10:30:35;;;;;;;0.30;0.30;;;;;;;;;;5041956;28;20223;-78
2024/02/12 10:33:05;;;;;;;0.30;0.30;;;;;;;;;;5041030;28;20245;-78
2024/02/12 10:35:37;;;;;;;0.30;0.30;;;;;;;;;;5024847;28;20715;-78
2024/02/12 10:38:07;;;;;;;0.70;0.70;;;;;;;;;;5029406;28;20700;-79
2024/02/12 10:40:45;;;;;;;0.30;0.30;;;;;;;;;;5042198;28;20259;-78
2024/02/12 10:43:15;;;;;;;0.30;0.30;;;;;;;;;;5024164;28;20242;-78
2024/02/12 10:45:47;;;;;;;0.30;0.30;;;;;;;;;;5041545;28;20660;-78
2024/02/12 10:48:16;;;;;;;0.30;0.30;;;;;;;;;;5041816;28;20611;-78
2024/02/12 10:50:46;;;;;;;0.30;0.30;;;;;;;;;;5041324;28;20682;-78
2024/02/12 10:53:18;;;;;;;0.30;0.30;;;;;;;;;;5041114;28;20222;-78
2024/02/12 10:55:46;;;;;;;0.20;0.20;;;;;;;;;;5039688;28;20700;-78
2024/02/12 10:58:13;;;;;;;0.30;0.30;;;;;;;;;;5041643;28;20255;-79
2024/02/12 11:00:40;;;;;;;0.30;0.30;;;;;;;;;;5045024;28;20231;-78
2024/02/12 11:03:17;;;;;;;0.27;0.27;;;;;;;;;;5030109;28;20222;-78
2024/02/12 11:05:44;;;;;;;0.30;0.30;;;;;;;;;;5027631;28;20277;-78
2024/02/12 11:08:15;;;;;;;0.30;0.30;;;;;;;;;;5029373;28;20223;-78
2024/02/12 11:10:43;;;;;;;0.30;0.30;;;;;;;;;;5044899;28;20318;-78
2024/02/12 11:13:15;;;;;;;6.00;0.93;;;;;;;;;;5023154;28;20708;-78
2024/02/12 11:15:55;;;;;;;0.20;0.20;;;;;;;;;;5039940;28;20310;-78
2024/02/12 11:18:25;;;;;;;0.30;0.30;;;;;;;;;;5040838;28;20230;-78
2024/02/12 11:20:56;;;;;;;0.37;0.37;;;;;;;;;;5041345;28;20660;-78
2024/02/12 11:23:24;;;;;;;0.30;0.30;;;;;;;;;;5040533;28;20230;-78
2024/02/12 11:25:54;;;;;;;0.20;0.20;;;;;;;;;;5040561;28;20261;-78
2024/02/12 11:28:25;;;;;;;0.50;0.50;;;;;;;;;;5037539;28;20228;-78
2024/02/12 11:30:53;;;;;;;0.37;0.37;;;;;;;;;;5041052;28;20602;-78
2024/02/12 11:33:19;;;;;;;0.30;0.30;;;;;;;;;;5039503;28;20219;-78
2024/02/12 11:35:46;;;;;;;0.20;0.20;;;;;;;;;;5040816;28;20278;-78
2024/02/12 11:38:17;;;;;;;0.30;0.30;;;;;;;;;;5030880;28;20242;-78
2024/02/12 11:40:44;;;;;;;0.30;0.30;;;;;;;;;;5048132;28;20223;-78
2024/02/12 11:43:11;;;;;;;0.30;0.30;;;;;;;;;;5022580;28;20223;-80
2024/02/12 11:45:39;;;;;;;0.30;0.30;;;;;;;;;;5040028;28;20282;-78
2024/02/12 11:48:10;;;;;;;0.20;0.20;;;;;;;;;;5042615;28;20318;-77
2024/02/12 11:50:38;;;;;;;0.30;0.30;;;;;;;;;;5027908;28;20235;-78
2024/02/12 11:53:05;;;;;;;0.30;0.30;;;;;;;;;;5023637;28;20227;-78
2024/02/12 11:55:33;;;;;;;0.30;0.30;;;;;;;;;;5040902;28;20266;-78
2024/02/12 11:57:59;;;;;;;0.30;0.30;;;;;;;;;;5038472;28;20227;-78
2024/02/12 12:00:28;;;;;;;0.30;0.30;;;;;;;;;;5040468;28;20250;-78
2024/02/12 12:02:55;;;;;;;0.77;0.77;;;;;;;;;;5040291;28;20220;-78
2024/02/12 12:05:23;;;;;;;0.30;0.30;;;;;;;;;;5040866;28;20260;-78
2024/02/12 12:07:52;;;;;;;0.30;0.30;;;;;;;;;;5034249;28;20227;-78
2024/02/12 12:10:26;;;;;;;0.20;0.20;;;;;;;;;;5022020;28;20223;-78
2024/02/12 12:12:57;;;;;;;0.30;0.30;;;;;;;;;;5040992;28;20237;-77
2024/02/12 12:15:30;;;;;;;0.30;0.30;;;;;;;;;;5041246;28;20650;-79
2024/02/12 12:17:58;;;;;;;0.23;0.23;;;;;;;;;;5060212;28;20269;-78
2024/02/12 12:20:34;;;;;;;0.30;0.30;;;;;;;;;;5043995;28;20711;-78
2024/02/12 12:23:03;;;;;;;0.20;0.20;;;;;;;;;;5060026;28;20223;-78
2024/02/12 12:25:30;;;;;;;0.30;0.30;;;;;;;;;;5058730;28;20234;-78
2024/02/12 12:27:57;;;;;;;0.30;0.30;;;;;;;;;;5056143;28;20223;-77
2024/02/12 12:30:25;;;;;;;0.30;0.30;;;;;;;;;;5029909;28;20692;-78
2024/02/12 12:32:52;;;;;;;0.77;0.77;;;;;;;;;;5050305;28;20737;-78
2024/02/12 12:35:19;;;;;;;0.30;0.30;;;;;;;;;;5049241;28;20228;-78
2024/02/12 12:37:46;;;;;;;0.30;0.30;;;;;;;;;;5064325;28;20227;-78
2024/02/12 12:40:19;;;;;;;0.33;0.33;;;;;;;;;;5063714;28;20238;-78
2024/02/12 12:42:49;;;;;;;0.37;0.37;;;;;;;;;;5064597;28;20763;-78
2024/02/12 12:45:17;;;;;;;0.47;0.47;;;;;;;;;;5064096;28;20222;-78
2024/02/12 12:47:44;;;;;;;0.30;0.30;;;;;;;;;;5063900;28;20223;-77
2024/02/12 12:50:12;;;;;;;0.30;0.30;;;;;;;;;;5063236;28;20237;-78
2024/02/12 12:52:39;;;;;;;0.33;0.33;;;;;;;;;;5063529;28;20245;-78
2024/02/12 12:55:15;;;;;;;0.30;0.30;;;;;;;;;;5047044;28;20215;-78
2024/02/12 12:57:43;;;;;;;0.30;0.30;;;;;;;;;;5064775;28;20230;-77
2024/02/12 13:00:25;;;;;;;0.30;0.30;;;;;;;;;;5050149;28;20610;-78
2024/02/12 13:02:55;;;;;;;0.30;0.30;;;;;;;;;;5063043;28;20708;-78
2024/02/12 13:05:23;;;;;;;0.43;0.43;;;;;;;;;;5063895;28;20602;-78
2024/02/12 13:07:50;;;;;;;0.30;0.30;;;;;;;;;;5047844;28;20606;-78
2024/02/12 13:10:41;;;;;;;0.30;0.30;;;;;;;;;;5061824;28;20288;-78
2024/02/12 13:13:11;;;;;;;0.30;0.30;;;;;;;;;;5046331;28;20227;-78
2024/02/12 13:15:42;;;;;;;0.67;0.67;;;;;;;;;;5042115;28;20263;-78
2024/02/12 13:18:12;;;;;;;0.77;0.77;;;;;;;;;;5049548;28;20219;-78
2024/02/12 13:20:41;;;;;;;0.30;0.30;;;;;;;;;;5063249;28;20223;-79
2024/02/12 13:23:08;;;;;;;0.30;0.30;;;;;;;;;;5063772;28;20252;-78
2024/02/12 13:25:35;;;;;;;1.87;0.77;;;;;;;;;;5062148;28;20231;-78
2024/02/12 13:28:03;;;;;;;1.60;1.40;;;;;;;;;;5062670;28;20360;-78
2024/02/12 13:30:32;;;;;;;0.30;0.30;;;;;;;;;;5037304;28;20340;-78
2024/02/12 13:33:07;;;;;;;0.23;0.23;;;;;;;;;;5043209;28;20224;-78
2024/02/12 13:35:42;;;;;;;0.40;0.40;;;;;;;;;;5042404;28;20284;-78
2024/02/12 13:38:11;;;;;;;2.43;0.73;;;;;;;;;;5042645;28;20220;-78
2024/02/12 13:40:39;;;;;;;0.30;0.30;;;;;;;;;;5042795;28;20250;-78
2024/02/12 13:43:06;;;;;;;0.30;0.30;;;;;;;;;;5041869;28;20243;-78
2024/02/12 13:45:38;;;;;;;0.30;0.30;;;;;;;;;;5041136;28;20241;-78
2024/02/12 13:48:09;;;;;;;0.30;0.30;;;;;;;;;;5041872;28;20701;-78
2024/02/12 13:50:36;;;;;;;0.30;0.30;;;;;;;;;;5025554;28;20318;-78
2024/02/12 13:53:07;;;;;;;0.30;0.30;;;;;;;;;;5041277;28;20744;-78
2024/02/12 13:55:41;;;;;;;0.30;0.30;;;;;;;;;;5041680;28;20232;-77
2024/02/12 13:58:08;;;;;;;0.30;0.30;;;;;;;;;;5042531;28;20232;-78
2024/02/12 14:00:35;;;;;;;0.30;0.30;;;;;;;;;;5042521;28;20604;-78
2024/02/12 14:03:28;;;;;;;0.30;0.30;;;;;;;;;;5032622;28;20266;-78
2024/02/12 14:05:55;;;;;;;0.30;0.30;;;;;;;;;;5048159;28;20223;-78
2024/02/12 14:08:22;;;;;;;0.30;0.30;;;;;;;;;;5030114;28;20219;-78
2024/02/12 14:10:49;;;;;;;0.30;0.30;;;;;;;;;;5052771;28;20237;-78
2024/02/12 14:13:16;;;;;;;0.30;0.30;;;;;;;;;;5045421;28;20223;-78
2024/02/12 14:15:42;;;;;;;0.30;0.30;;;;;;;;;;5045944;28;20234;-78
2024/02/12 14:18:30;;;;;;;0.20;0.20;;;;;;;;;;5049018;28;20219;-79
2024/02/12 14:20:57;;;;;;;0.30;0.30;;;;;;;;;;5067455;28;20587;-78
2024/02/12 14:23:26;;;;;;;0.30;0.30;;;;;;;;;;5062315;28;20222;-78
2024/02/12 14:25:53;;;;;;;0.30;0.30;;;;;;;;;;5061239;28;20665;-78
2024/02/12 14:28:20;;;;;;;0.30;0.30;;;;;;;;;;5062435;28;20225;-79
2024/02/12 14:30:48;;;;;;;0.30;0.30;;;;;;;;;;5044970;28;20359;-78
2024/02/12 14:33:15;;;;;;;0.30;0.30;;;;;;;;;;5061522;28;20230;-78
2024/02/12 14:35:46;;;;;;;0.30;0.30;;;;;;;;;;5045563;28;20235;-78
2024/02/12 14:38:15;;;;;;;0.30;0.30;;;;;;;;;;5059913;28;20230;-78
2024/02/12 14:40:43;;;;;;;0.30;0.30;;;;;;;;;;5053777;28;20229;-79
2024/02/12 14:43:11;;;;;;;0.33;0.33;;;;;;;;;;5061236;28;20215;-79
2024/02/12 14:45:41;;;;;;;0.30;0.30;;;;;;;;;;5045855;28;20234;-78
2024/02/12 14:48:08;;;;;;;0.30;0.30;;;;;;;;;;5062096;28;20591;-79
2024/02/12 14:50:35;;;;;;;0.30;0.30;;;;;;;;;;5047204;28;20252;-77
2024/02/12 14:53:03;;;;;;;0.30;0.30;;;;;;;;;;5060686;28;20224;-77
2024/02/12 14:55:30;;;;;;;0.30;0.30;;;;;;;;;;5060786;28;20314;-77
2024/02/12 14:57:58;;;;;;;0.23;0.23;;;;;;;;;;5061030;28;20784;-77
2024/02/12 15:00:25;;;;;;;0.30;0.30;;;;;;;;;;5065618;28;20234;-77
2024/02/12 15:02:54;;;;;;;0.30;0.30;;;;;;;;;;5048244;28;20238;-77
2024/02/12 15:05:25;;;;;;;0.30;0.30;;;;;;;;;;5052609;28;20254;-77
2024/02/12 15:07:52;;;;;;;0.30;0.30;;;;;;;;;;5054766;28;20691;-79
2024/02/12 15:10:21;;;;;;;0.30;0.30;;;;;;;;;;5065377;28;20229;-78